Airfield :
LOGIN :

Register | Disclaimer

   EN    FR    IT 

 










Legend :    VFR   Marginal VFR   IFR   Intensive IFR   Very Intensive IFR
Visi :
Ceiling :
>= 8 km
>= 3000ft
5 to 8 km
1000 to 3000 ft
1500m to 5 km
500 to 1000 ft
800 to 1500m
200 to 500 ft
< 800m
< 200 ft
Symbols :   Thunderstorms  Fog  Heavy snow  Heavy precipitations  Wind > 20 kt
SIGMETs :     Misc.  Thunderstorms  Icing  Turbulence  Mountain Waves  Volcanic Ashes






- Airport Elevation : 297 ft


EGVP - Middle Wallop

CURRENT METAR :
  • 190950Z 09006KT 9999 OVC011 13/10 Q1015 BECMG BKN015 RMK GRN BECMG WHT

EXPIRED METARs :
  • 190850Z 07007KT 9999 OVC011 13/10 Q1015 NOSIG RMK GRN GRN
  • 190820Z 08006KT 9999 FEW010 OVC012 13/10 Q1015 NOSIG RMK GRN GRN
  • 190750Z 08005KT 9999 BKN009 OVC013 13/10 Q1015 TEMPO FEW011 BKN015 RMK GRN TEMPO WHT

TAF TAF EGVP
Valid from the 19 at 09:00 until the 19 at 18:00 UTC


190723Z 1909/1918 05004KT 9999 FEW011 BKN020
TEMPO 1909/1918 BKN014
PROB30
TEMPO 1914/1918 7000 -RA
ATIS : +44 1980 674 142



MET'MAP, your aeronautical weather chart ! - Copyright ORBIFLY December 2007 - Disclaimer

ORBIFLY MET'MAP TEAM :

Programming & Development : Alexandra Zaïnal
Concept & original design : Baudouin d'Aumeries
Assistance for programming : Marc-Olivier Méhu
Technical & hardware support : Manuel Goepfert

Contact : metmap@orbifly.com




SOURCES & CREDITS :

   NOAA